Terminal Aerodrome Forecast
Issued by NWS Tampa Bay Area, FL

Home | Current Version | Previous Version | Text Only | Print | Product List | Glossary On
Versions: 1 2 3 4 5 6 7 8 9 10 11 12 13 14 15 16 17 18 19
864
FTUS42 KTBW 071720
TAFSRQ
TAF
KSRQ 071720Z 0718/0818 33016G27KT P6SM SKC
     FM080000 32011KT P6SM SKC
     FM080400 31007KT P6SM SKC
     FM081400 30010KT P6SM SCT250=

USA.gov is the U.S. government's official web portal to all federal, state and local government web resources and services.